createdAt,value
2019-05-30T00:00:46.738Z,1004.99
2019-05-30T00:01:46.718Z,1005.07
2019-05-30T00:02:46.728Z,1005.12
2019-05-30T00:03:46.716Z,1005.11
2019-05-30T00:04:58.181Z,1005.12
2019-05-30T00:05:46.684Z,1005.17
2019-05-30T00:06:46.663Z,1005.16
2019-05-30T00:07:46.665Z,1005.21
2019-05-30T00:08:46.654Z,1005.16
2019-05-30T00:09:46.671Z,1005.18
2019-05-30T00:10:46.620Z,1005.21
2019-05-30T00:11:46.626Z,1005.24
2019-05-30T00:12:46.606Z,1005.21
2019-05-30T00:13:46.582Z,1005.19
2019-05-30T00:14:46.582Z,1005.21
2019-05-30T00:15:46.572Z,1005.26
2019-05-30T00:16:46.553Z,1005.22
2019-05-30T00:17:46.564Z,1005.23
2019-05-30T00:18:46.545Z,1005.18
2019-05-30T00:19:46.554Z,1005.24
2019-05-30T00:20:46.524Z,1005.14
2019-05-30T00:21:46.513Z,1005.25
2019-05-30T00:22:46.503Z,1005.27
2019-05-30T00:23:46.496Z,1005.25
2019-05-30T00:24:46.487Z,1005.29
2019-05-30T00:25:46.473Z,1005.26
2019-05-30T00:26:46.465Z,1005.22
2019-05-30T00:27:46.455Z,1005.22
2019-05-30T00:28:46.423Z,1005.29
2019-05-30T00:29:46.464Z,1005.31
2019-05-30T00:30:46.413Z,1005.30
2019-05-30T00:31:46.407Z,1005.29
2019-05-30T00:32:46.395Z,1005.28
2019-05-30T00:33:46.375Z,1005.32
2019-05-30T00:34:46.362Z,1005.28
2019-05-30T00:35:57.663Z,1005.29
2019-05-30T00:36:46.361Z,1005.40
2019-05-30T00:37:46.343Z,1005.35
2019-05-30T00:38:46.323Z,1005.36
2019-05-30T00:39:46.319Z,1005.38
2019-05-30T00:40:46.326Z,1005.38
2019-05-30T00:41:46.303Z,1005.42
2019-05-30T00:42:46.283Z,1005.41
2019-05-30T00:43:46.282Z,1005.45
2019-05-30T00:44:46.265Z,1005.43
2019-05-30T00:45:46.250Z,1005.39
2019-05-30T00:46:46.253Z,1005.42
2019-05-30T00:47:46.246Z,1005.37
2019-05-30T00:48:46.222Z,1005.46
2019-05-30T00:49:46.211Z,1005.49
2019-05-30T00:50:46.191Z,1005.40
2019-05-30T00:51:46.198Z,1005.49
2019-05-30T00:52:46.182Z,1005.53
2019-05-30T00:53:46.164Z,1005.50
2019-05-30T00:54:46.153Z,1005.54
2019-05-30T00:55:46.153Z,1005.57
2019-05-30T00:56:46.144Z,1005.51
2019-05-30T00:57:46.112Z,1005.65
2019-05-30T00:58:46.115Z,1005.57
2019-05-30T00:59:46.114Z,1005.62
2019-05-30T01:00:46.097Z,1005.69
2019-05-30T01:01:46.083Z,1005.70
2019-05-30T01:02:46.105Z,1005.69
2019-05-30T01:03:46.064Z,1005.74
2019-05-30T01:04:46.053Z,1005.75
2019-05-30T01:05:46.043Z,1005.79
2019-05-30T01:06:59.104Z,1005.73
2019-05-30T01:07:46.030Z,1005.79
2019-05-30T01:08:45.997Z,1005.77
2019-05-30T01:09:46.004Z,1005.73
2019-05-30T01:10:45.991Z,1005.85
2019-05-30T01:11:45.998Z,1005.82
2019-05-30T01:12:45.960Z,1005.92
2019-05-30T01:13:46.023Z,1005.83
2019-05-30T01:14:45.949Z,1005.88
2019-05-30T01:15:45.931Z,1005.87
2019-05-30T01:16:45.929Z,1005.88
2019-05-30T01:17:45.921Z,1005.95
2019-05-30T01:18:45.898Z,1005.94
2019-05-30T01:19:45.878Z,1005.98
2019-05-30T01:20:45.884Z,1006.01
2019-05-30T01:21:45.881Z,1006.01
2019-05-30T01:22:45.850Z,1005.98
2019-05-30T01:23:45.858Z,1005.97
2019-05-30T01:24:45.827Z,1006.05
2019-05-30T01:25:45.829Z,1006.07
2019-05-30T01:26:45.817Z,1006.10
2019-05-30T01:27:45.800Z,1006.10
2019-05-30T01:29:45.879Z,1006.14
2019-05-30T01:30:58.874Z,1006.12
2019-05-30T01:31:46.749Z,1006.18
2019-05-30T01:32:45.750Z,1006.18
2019-05-30T01:33:45.770Z,1006.21
2019-05-30T01:34:45.731Z,1006.20
2019-05-30T01:35:45.722Z,1006.16
2019-05-30T01:36:45.714Z,1006.21
2019-05-30T01:37:55.917Z,1006.18
2019-05-30T01:38:45.687Z,1006.18
2019-05-30T01:39:45.716Z,1006.20
2019-05-30T01:40:45.668Z,1006.22
2019-05-30T01:41:45.648Z,1006.24
2019-05-30T01:42:45.639Z,1006.29
2019-05-30T01:43:45.629Z,1006.27
2019-05-30T01:44:45.606Z,1006.24
2019-05-30T01:45:45.616Z,1006.32
2019-05-30T01:46:45.600Z,1006.28
2019-05-30T01:47:45.577Z,1006.30
2019-05-30T01:48:45.566Z,1006.34
2019-05-30T01:49:45.558Z,1006.23
2019-05-30T01:50:45.568Z,1006.33
2019-05-30T01:51:45.559Z,1006.35
2019-05-30T01:52:45.526Z,1006.36
2019-05-30T01:53:45.527Z,1006.36
2019-05-30T01:54:45.550Z,1006.40
2019-05-30T01:55:48.557Z,1006.35
2019-05-30T01:56:45.488Z,1006.36
2019-05-30T01:57:45.506Z,1006.41
2019-05-30T01:58:45.468Z,1006.44
2019-05-30T02:00:45.457Z,1006.44
2019-05-30T02:01:45.437Z,1006.44
2019-05-30T02:02:45.429Z,1006.42
2019-05-30T02:03:45.409Z,1006.42
2019-05-30T02:04:45.407Z,1006.47
2019-05-30T02:05:45.388Z,1006.52
2019-05-30T02:06:45.378Z,1006.58
2019-05-30T02:07:45.368Z,1006.48
2019-05-30T02:08:56.035Z,1006.49
2019-05-30T02:09:45.339Z,1006.50
2019-05-30T02:10:45.350Z,1006.54
2019-05-30T02:11:45.333Z,1006.57
2019-05-30T02:12:45.321Z,1006.54
2019-05-30T02:13:45.315Z,1006.65
2019-05-30T02:14:45.297Z,1006.68
2019-05-30T02:15:45.282Z,1006.72
2019-05-30T02:16:45.290Z,1006.69
2019-05-30T02:17:45.262Z,1006.71
2019-05-30T02:18:45.240Z,1006.73
2019-05-30T02:19:45.231Z,1006.73
2019-05-30T02:20:45.241Z,1006.79
2019-05-30T02:21:45.220Z,1006.72
2019-05-30T02:22:45.210Z,1006.80
2019-05-30T02:23:45.190Z,1006.80
2019-05-30T02:24:45.181Z,1006.77
2019-05-30T02:25:45.170Z,1006.79
2019-05-30T02:26:45.164Z,1006.82
2019-05-30T02:27:45.164Z,1006.82
2019-05-30T02:28:45.144Z,1006.83
2019-05-30T02:29:45.132Z,1006.85
2019-05-30T02:31:45.113Z,1006.87
2019-05-30T02:32:45.121Z,1006.92
2019-05-30T02:33:45.089Z,1006.89
2019-05-30T02:34:45.071Z,1006.83
2019-05-30T02:35:45.060Z,1006.95
2019-05-30T02:36:45.065Z,1006.90
2019-05-30T02:37:45.083Z,1006.90
2019-05-30T02:38:45.052Z,1006.98
2019-05-30T02:40:00.105Z,1006.96
2019-05-30T02:40:46.003Z,1006.91
2019-05-30T02:41:45.001Z,1006.94
2019-05-30T02:42:44.993Z,1007.01
2019-05-30T02:43:44.984Z,1006.96
2019-05-30T02:44:44.974Z,1006.99
2019-05-30T02:45:44.954Z,1006.96
2019-05-30T02:46:44.946Z,1006.96
2019-05-30T02:47:44.931Z,1007.00
2019-05-30T02:48:58.020Z,1007.00
2019-05-30T02:49:45.915Z,1006.99
2019-05-30T02:50:44.915Z,1007.00
2019-05-30T02:51:44.884Z,1007.01
2019-05-30T02:52:44.884Z,1007.01
2019-05-30T02:53:44.865Z,1007.07
2019-05-30T02:54:44.865Z,1007.03
2019-05-30T02:55:44.861Z,1007.10
2019-05-30T02:56:44.833Z,1007.05
2019-05-30T02:57:44.827Z,1006.98
2019-05-30T02:58:44.820Z,1006.92
2019-05-30T02:59:44.807Z,1007.04
2019-05-30T03:00:44.787Z,1007.00
2019-05-30T03:02:44.787Z,1007.09
2019-05-30T03:03:44.781Z,1007.07
2019-05-30T03:04:44.818Z,1007.07
2019-05-30T03:05:44.761Z,1007.08
2019-05-30T03:06:44.727Z,1007.05
2019-05-30T03:07:44.724Z,1007.14
2019-05-30T03:08:44.705Z,1007.09
2019-05-30T03:09:44.738Z,1007.12
2019-05-30T03:10:55.352Z,1007.06
2019-05-30T03:11:44.694Z,1007.03
2019-05-30T03:13:44.653Z,1007.05
2019-05-30T03:14:44.650Z,1007.06
2019-05-30T03:15:44.656Z,1007.09
2019-05-30T03:16:44.621Z,1007.09
2019-05-30T03:17:44.639Z,1007.11
2019-05-30T03:18:44.613Z,1007.06
2019-05-30T03:19:44.607Z,1007.13
2019-05-30T03:20:44.595Z,1007.09
2019-05-30T03:21:44.563Z,1007.21
2019-05-30T03:22:44.565Z,1007.20
2019-05-30T03:23:44.554Z,1007.21
2019-05-30T03:24:44.531Z,1007.27
2019-05-30T03:25:44.546Z,1007.16
2019-05-30T03:26:44.536Z,1007.23
2019-05-30T03:27:44.515Z,1007.25
2019-05-30T03:28:44.500Z,1007.28
2019-05-30T03:29:44.497Z,1007.27
2019-05-30T03:30:44.501Z,1007.30
2019-05-30T03:31:44.478Z,1007.34
2019-05-30T03:33:44.461Z,1007.34
2019-05-30T03:41:56.468Z,1007.40
2019-05-30T04:04:44.122Z,1007.64
2019-05-30T04:11:44.034Z,1007.70
2019-05-30T04:12:55.899Z,1007.64
2019-05-30T04:34:43.792Z,1007.76
2019-05-30T04:35:43.803Z,1007.76
2019-05-30T04:43:54.335Z,1007.81
2019-05-30T05:02:43.521Z,1007.90
2019-05-30T05:05:43.450Z,1008.01
2019-05-30T05:06:43.457Z,1008.05
2019-05-30T05:14:53.853Z,1008.09
2019-05-30T05:36:43.130Z,1008.12
2019-05-30T05:37:43.119Z,1008.13
2019-05-30T05:45:53.083Z,1008.21
2019-05-30T06:07:42.804Z,1008.42
2019-05-30T06:08:42.793Z,1008.33
2019-05-30T06:15:42.717Z,1008.39
2019-05-30T06:16:55.606Z,1008.40
2019-05-30T06:19:46.425Z,1008.46
2019-05-30T06:20:42.662Z,1008.40
2019-05-30T06:21:53.473Z,1008.40
2019-05-30T06:22:43.627Z,1008.46
2019-05-30T06:23:45.592Z,1008.50
2019-05-30T06:24:42.725Z,1008.48
2019-05-30T06:25:42.590Z,1008.42
2019-05-30T06:26:42.595Z,1008.44
2019-05-30T06:27:42.581Z,1008.50
2019-05-30T06:28:42.572Z,1008.50
2019-05-30T06:29:42.563Z,1008.51
2019-05-30T06:30:42.563Z,1008.57
2019-05-30T06:31:42.551Z,1008.61
2019-05-30T06:32:42.533Z,1008.57
2019-05-30T06:33:42.511Z,1008.57
2019-05-30T06:34:42.514Z,1008.57
2019-05-30T06:35:42.494Z,1008.57
2019-05-30T06:36:42.484Z,1008.60
2019-05-30T06:38:42.451Z,1008.60
2019-05-30T06:39:42.475Z,1008.60
2019-05-30T06:40:42.440Z,1008.65
2019-05-30T06:41:42.435Z,1008.56
2019-05-30T06:42:42.414Z,1008.55
2019-05-30T06:43:42.416Z,1008.55
2019-05-30T06:44:42.393Z,1008.62
2019-05-30T06:45:42.398Z,1008.58
2019-05-30T06:47:52.508Z,1008.55
2019-05-30T06:48:42.358Z,1008.58
2019-05-30T06:49:42.347Z,1008.55
2019-05-30T06:50:42.340Z,1008.58
2019-05-30T06:51:42.317Z,1008.59
2019-05-30T06:52:42.306Z,1008.67
2019-05-30T06:53:42.307Z,1008.62
2019-05-30T06:54:42.289Z,1008.59
2019-05-30T06:55:42.298Z,1008.55
2019-05-30T06:56:44.679Z,1008.59
2019-05-30T06:57:42.247Z,1008.54
2019-05-30T06:58:48.680Z,1008.56
2019-05-30T06:59:43.240Z,1008.58
2019-05-30T07:00:42.217Z,1008.52
2019-05-30T07:01:42.232Z,1008.54
2019-05-30T07:02:42.236Z,1008.58
2019-05-30T07:03:42.319Z,1008.56
2019-05-30T07:04:51.458Z,1008.59
2019-05-30T07:05:43.555Z,1008.52
2019-05-30T07:06:42.469Z,1008.55
2019-05-30T07:07:42.228Z,1008.57
2019-05-30T07:08:42.660Z,1008.61
2019-05-30T07:09:42.150Z,1008.57
2019-05-30T07:10:42.121Z,1008.55
2019-05-30T07:11:42.108Z,1008.57
2019-05-30T07:12:42.098Z,1008.62
2019-05-30T07:13:42.087Z,1008.69
2019-05-30T07:14:42.091Z,1008.64
2019-05-30T07:15:42.075Z,1008.65
2019-05-30T07:16:42.062Z,1008.61
2019-05-30T07:18:53.153Z,1008.72
2019-05-30T07:19:42.033Z,1008.67
2019-05-30T07:20:42.012Z,1008.67
2019-05-30T07:21:42.041Z,1008.57
2019-05-30T07:22:41.993Z,1008.70
2019-05-30T07:23:41.971Z,1008.75
2019-05-30T07:24:41.963Z,1008.72
2019-05-30T07:25:41.953Z,1008.65
2019-05-30T07:26:41.942Z,1008.71
2019-05-30T07:27:41.943Z,1008.75
2019-05-30T07:28:41.935Z,1008.66
2019-05-30T07:29:41.910Z,1008.68
2019-05-30T07:30:41.904Z,1008.68
2019-05-30T07:31:41.895Z,1008.68
2019-05-30T07:32:41.882Z,1008.66
2019-05-30T07:33:41.927Z,1008.75
2019-05-30T07:34:45.585Z,1008.77
2019-05-30T07:35:41.853Z,1008.76
2019-05-30T07:36:41.834Z,1008.66
2019-05-30T07:37:41.835Z,1008.74
2019-05-30T07:38:41.816Z,1008.76
2019-05-30T07:40:41.786Z,1008.78
2019-05-30T07:41:41.792Z,1008.76
2019-05-30T07:42:41.764Z,1008.69
2019-05-30T07:43:41.803Z,1008.75
2019-05-30T07:44:41.756Z,1008.73
2019-05-30T07:45:44.843Z,1008.78
2019-05-30T07:46:42.738Z,1008.70
2019-05-30T07:47:41.730Z,1008.73
2019-05-30T07:48:41.712Z,1008.68
2019-05-30T07:49:51.645Z,1008.72
2019-05-30T07:50:41.691Z,1008.79
2019-05-30T07:51:41.742Z,1008.66
2019-05-30T07:52:41.668Z,1008.77
2019-05-30T07:53:41.660Z,1008.72
2019-05-30T07:54:41.673Z,1008.67
2019-05-30T07:55:41.628Z,1008.73
2019-05-30T07:56:41.618Z,1008.74
2019-05-30T07:57:41.919Z,1008.78
2019-05-30T07:58:41.598Z,1008.77
2019-05-30T07:59:41.612Z,1008.71
2019-05-30T08:00:41.603Z,1008.75
2019-05-30T08:01:41.571Z,1008.81
2019-05-30T08:02:41.562Z,1008.76
2019-05-30T08:03:41.551Z,1008.76
2019-05-30T08:04:41.567Z,1008.79
2019-05-30T08:05:41.531Z,1008.84
2019-05-30T08:06:41.521Z,1008.91
2019-05-30T08:07:41.514Z,1008.79
2019-05-30T08:08:41.500Z,1008.86
2019-05-30T08:09:41.489Z,1008.85
2019-05-30T08:10:41.513Z,1008.91
2019-05-30T08:11:41.451Z,1008.81
2019-05-30T08:12:41.451Z,1008.79
2019-05-30T08:13:41.444Z,1008.79
2019-05-30T08:14:42.231Z,1008.75
2019-05-30T08:15:44.005Z,1008.78
2019-05-30T08:16:41.422Z,1008.76
2019-05-30T08:17:44.292Z,1008.73
2019-05-30T08:18:41.394Z,1008.78
2019-05-30T08:19:41.385Z,1008.83
2019-05-30T08:20:52.391Z,1008.83
2019-05-30T08:21:41.377Z,1008.83
2019-05-30T08:22:41.356Z,1008.74
2019-05-30T08:23:41.334Z,1008.78
2019-05-30T08:24:41.327Z,1008.81
2019-05-30T08:25:41.318Z,1008.79
2019-05-30T08:26:41.320Z,1008.75
2019-05-30T08:27:41.298Z,1008.70
2019-05-30T08:28:42.699Z,1008.74
2019-05-30T08:29:41.269Z,1008.78
2019-05-30T08:30:41.269Z,1008.83
2019-05-30T08:31:41.301Z,1008.78
2019-05-30T08:32:41.242Z,1008.89
2019-05-30T08:33:41.221Z,1008.80
2019-05-30T08:34:41.235Z,1008.88
2019-05-30T08:35:49.080Z,1008.91
2019-05-30T08:36:42.200Z,1008.93
2019-05-30T08:37:41.185Z,1008.93
2019-05-30T08:38:41.188Z,1008.92
2019-05-30T08:39:41.163Z,1008.95
2019-05-30T08:40:41.161Z,1008.94
2019-05-30T08:41:41.190Z,1008.94
2019-05-30T08:42:41.120Z,1008.95
2019-05-30T08:43:41.112Z,1008.98
2019-05-30T08:44:41.124Z,1008.92
2019-05-30T08:45:41.091Z,1008.91
2019-05-30T08:46:41.099Z,1008.94
2019-05-30T08:47:41.102Z,1008.92
2019-05-30T08:48:41.061Z,1008.93
2019-05-30T08:49:41.051Z,1008.90
2019-05-30T08:50:44.511Z,1008.86
2019-05-30T08:51:51.703Z,1008.91
2019-05-30T08:52:41.181Z,1008.96
2019-05-30T08:53:41.023Z,1008.96
2019-05-30T08:54:40.994Z,1008.94
2019-05-30T08:55:40.985Z,1008.96
2019-05-30T08:56:40.974Z,1008.98
2019-05-30T08:57:41.225Z,1009.00
2019-05-30T08:58:41.003Z,1008.95
2019-05-30T08:59:44.512Z,1008.93
2019-05-30T09:00:40.936Z,1009.05
2019-05-30T09:01:42.113Z,1008.98
2019-05-30T09:02:41.113Z,1009.03
2019-05-30T09:03:42.034Z,1009.04
2019-05-30T09:04:41.996Z,1009.13
2019-05-30T09:05:58.178Z,1009.02
2019-05-30T09:06:42.100Z,1008.96
2019-05-30T09:07:42.726Z,1009.09
2019-05-30T09:08:41.926Z,1009.14
2019-05-30T09:09:42.152Z,1009.05
2019-05-30T09:10:41.013Z,1009.05
2019-05-30T09:11:40.830Z,1008.98
2019-05-30T09:12:42.782Z,1009.17
2019-05-30T09:13:40.799Z,1009.04
2019-05-30T09:14:41.187Z,1009.08
2019-05-30T09:15:41.115Z,1009.14
2019-05-30T09:16:40.758Z,1009.05
2019-05-30T09:17:42.488Z,1009.16
2019-05-30T09:18:41.582Z,1009.07
2019-05-30T09:19:41.477Z,1009.00
2019-05-30T09:20:41.944Z,1009.03
2019-05-30T09:21:41.455Z,1009.11
2019-05-30T09:22:51.024Z,1009.05
2019-05-30T09:23:42.107Z,1009.09
2019-05-30T09:24:41.988Z,1009.04
2019-05-30T09:25:41.519Z,1009.02
2019-05-30T09:26:44.212Z,1008.98
2019-05-30T09:27:42.945Z,1009.02
2019-05-30T09:28:40.809Z,1008.98
2019-05-30T09:29:41.673Z,1009.01
2019-05-30T09:30:41.566Z,1009.07
2019-05-30T09:31:41.197Z,1009.04
2019-05-30T09:32:41.383Z,1009.05
2019-05-30T09:33:40.965Z,1009.09
2019-05-30T09:34:42.035Z,1009.15
2019-05-30T09:35:41.444Z,1009.15
2019-05-30T09:36:40.999Z,1009.15
2019-05-30T09:37:41.766Z,1009.10
2019-05-30T09:38:41.716Z,1009.14
2019-05-30T09:39:41.493Z,1009.10
2019-05-30T09:40:40.883Z,1009.03
2019-05-30T09:41:42.057Z,1009.04
2019-05-30T09:42:41.220Z,1009.02
2019-05-30T09:43:41.576Z,1009.02
2019-05-30T09:44:40.981Z,1008.93
2019-05-30T09:45:41.248Z,1008.99
2019-05-30T09:46:41.465Z,1008.92
2019-05-30T09:47:42.992Z,1009.00
2019-05-30T09:48:41.506Z,1008.97
2019-05-30T09:49:41.530Z,1008.99
2019-05-30T09:50:41.994Z,1009.04
2019-05-30T09:53:50.493Z,1008.92
2019-05-30T10:15:40.171Z,1008.90
2019-05-30T10:24:51.191Z,1008.84
2019-05-30T10:46:39.796Z,1008.70
2019-05-30T10:54:39.719Z,1008.81
2019-05-30T10:55:50.129Z,1008.82
2019-05-30T10:59:39.665Z,1008.85
2019-05-30T11:17:39.474Z,1008.80
2019-05-30T11:26:50.940Z,1008.67
2019-05-30T11:30:39.350Z,1008.66
2019-05-30T11:32:39.360Z,1008.70
2019-05-30T11:34:39.305Z,1008.67
2019-05-30T11:38:39.254Z,1008.72
2019-05-30T11:48:39.155Z,1008.57
2019-05-30T11:57:49.984Z,1008.82
2019-05-30T11:59:39.025Z,1008.83
2019-05-30T12:19:38.811Z,1008.70
2019-05-30T12:27:38.774Z,1008.75
2019-05-30T12:28:48.928Z,1008.76
2019-05-30T12:30:54.447Z,1008.74
2019-05-30T12:31:39.678Z,1008.77
2019-05-30T12:33:38.677Z,1008.83
2019-05-30T12:34:38.657Z,1008.84
2019-05-30T12:35:38.636Z,1008.78
2019-05-30T12:36:38.636Z,1008.76
2019-05-30T12:37:53.495Z,1008.79
2019-05-30T12:38:39.623Z,1008.70
2019-05-30T12:39:38.613Z,1008.87
2019-05-30T12:40:38.577Z,1008.85
2019-05-30T12:41:38.578Z,1008.80
2019-05-30T12:42:38.568Z,1008.88
2019-05-30T12:43:38.565Z,1008.75
2019-05-30T12:44:38.550Z,1008.76
2019-05-30T12:45:38.530Z,1008.80
2019-05-30T12:46:38.543Z,1008.79
2019-05-30T12:47:38.511Z,1008.90
2019-05-30T12:48:38.510Z,1008.88
2019-05-30T12:49:38.503Z,1008.86
2019-05-30T12:50:38.481Z,1008.79
2019-05-30T12:51:38.471Z,1008.79
2019-05-30T12:53:38.459Z,1008.74
2019-05-30T12:54:38.452Z,1008.75
2019-05-30T12:55:38.430Z,1008.66
2019-05-30T12:56:38.412Z,1008.74
2019-05-30T12:57:38.400Z,1008.80
2019-05-30T12:58:38.394Z,1008.74
2019-05-30T12:59:48.875Z,1008.73
2019-05-30T13:01:38.364Z,1008.63
2019-05-30T13:02:38.344Z,1008.73
2019-05-30T13:03:38.335Z,1008.69
2019-05-30T13:05:38.331Z,1008.71
2019-05-30T13:06:38.305Z,1008.67
2019-05-30T13:07:38.297Z,1008.65
2019-05-30T13:08:38.298Z,1008.72
2019-05-30T13:09:38.278Z,1008.60
2019-05-30T13:10:38.265Z,1008.79
2019-05-30T13:11:38.258Z,1008.78
2019-05-30T13:12:38.257Z,1008.59
2019-05-30T13:14:38.228Z,1008.72
2019-05-30T13:15:38.218Z,1008.56
2019-05-30T13:16:38.196Z,1008.64
2019-05-30T13:17:38.240Z,1008.60
2019-05-30T13:18:38.202Z,1008.68
2019-05-30T13:19:38.166Z,1008.58
2019-05-30T13:20:38.157Z,1008.54
2019-05-30T13:21:38.162Z,1008.55
2019-05-30T13:22:38.126Z,1008.56
2019-05-30T13:24:38.133Z,1008.63
2019-05-30T13:25:38.111Z,1008.56
2019-05-30T13:26:38.120Z,1008.58
2019-05-30T13:27:38.074Z,1008.57
2019-05-30T13:28:38.084Z,1008.55
2019-05-30T13:29:38.048Z,1008.55
2019-05-30T13:30:49.193Z,1008.61
2019-05-30T13:32:38.063Z,1008.57
2019-05-30T13:33:38.652Z,1008.59
2019-05-30T13:34:38.013Z,1008.51
2019-05-30T13:35:38.002Z,1008.62
2019-05-30T13:37:37.998Z,1008.55
2019-05-30T13:38:37.974Z,1008.46
2019-05-30T13:39:37.956Z,1008.50
2019-05-30T13:40:37.945Z,1008.47
2019-05-30T13:41:37.932Z,1008.42
2019-05-30T13:42:37.957Z,1008.50
2019-05-30T13:43:38.004Z,1008.44
2019-05-30T13:44:37.935Z,1008.50
2019-05-30T13:45:37.894Z,1008.53
2019-05-30T13:46:37.873Z,1008.49
2019-05-30T13:47:37.879Z,1008.53
2019-05-30T13:48:37.917Z,1008.44
2019-05-30T13:49:37.854Z,1008.48
2019-05-30T13:50:37.846Z,1008.39
2019-05-30T13:51:37.824Z,1008.41
2019-05-30T13:52:37.839Z,1008.31
2019-05-30T13:53:37.810Z,1008.43
2019-05-30T13:55:37.797Z,1008.40
2019-05-30T13:56:37.778Z,1008.34
2019-05-30T13:57:37.757Z,1008.27
2019-05-30T13:58:37.758Z,1008.36
2019-05-30T13:59:37.778Z,1008.43
2019-05-30T14:00:37.779Z,1008.30
2019-05-30T14:01:48.819Z,1008.37
2019-05-30T14:03:37.714Z,1008.31
2019-05-30T14:04:37.680Z,1008.29
2019-05-30T14:05:37.689Z,1008.33
2019-05-30T14:06:37.662Z,1008.28
2019-05-30T14:07:38.176Z,1008.25
2019-05-30T14:09:37.646Z,1008.13
2019-05-30T14:10:37.633Z,1008.19
2019-05-30T14:11:37.635Z,1008.25
2019-05-30T14:12:37.611Z,1008.16
2019-05-30T14:13:37.591Z,1008.17
2019-05-30T14:14:37.592Z,1008.08
2019-05-30T14:15:37.574Z,1008.17
2019-05-30T14:16:37.551Z,1008.24
2019-05-30T14:17:37.543Z,1008.22
2019-05-30T14:18:37.533Z,1008.25
2019-05-30T14:19:37.526Z,1008.18
2019-05-30T14:20:37.535Z,1008.18
2019-05-30T14:21:37.494Z,1008.15
2019-05-30T14:22:37.490Z,1008.14
2019-05-30T14:23:37.485Z,1008.12
2019-05-30T14:24:37.474Z,1008.17
2019-05-30T14:26:37.469Z,1008.12
2019-05-30T14:27:37.444Z,1008.02
2019-05-30T14:28:37.423Z,1007.97
2019-05-30T14:29:37.471Z,1008.12
2019-05-30T14:30:37.411Z,1008.15
2019-05-30T14:31:37.416Z,1008.02
2019-05-30T14:32:47.520Z,1008.04
2019-05-30T14:34:37.358Z,1008.05
2019-05-30T14:35:37.366Z,1008.08
2019-05-30T14:36:37.348Z,1008.04
2019-05-30T14:37:37.330Z,1008.01
2019-05-30T14:38:37.326Z,1008.09
2019-05-30T14:39:37.311Z,1007.98
2019-05-30T14:40:37.300Z,1008.07
2019-05-30T14:41:37.295Z,1008.08
2019-05-30T14:42:37.286Z,1008.02
2019-05-30T14:43:37.260Z,1007.95
2019-05-30T14:44:37.266Z,1007.97
2019-05-30T14:45:37.253Z,1007.96
2019-05-30T14:46:37.257Z,1007.97
2019-05-30T14:47:37.233Z,1007.94
2019-05-30T14:48:37.224Z,1007.97
2019-05-30T14:49:37.200Z,1007.89
2019-05-30T14:50:37.200Z,1007.89
2019-05-30T14:51:37.181Z,1007.91
2019-05-30T14:52:37.188Z,1007.88
2019-05-30T14:53:37.173Z,1007.83
2019-05-30T14:54:37.164Z,1007.87
2019-05-30T14:55:37.140Z,1007.84
2019-05-30T14:56:37.162Z,1007.83
2019-05-30T14:57:37.137Z,1007.82
2019-05-30T14:58:37.104Z,1007.84
2019-05-30T14:59:37.093Z,1007.84
2019-05-30T15:00:37.096Z,1007.80
2019-05-30T15:01:37.086Z,1007.86
2019-05-30T15:02:37.075Z,1007.80
2019-05-30T15:04:37.055Z,1007.79
2019-05-30T15:05:37.029Z,1007.79
2019-05-30T15:06:37.017Z,1007.85
2019-05-30T15:07:37.057Z,1007.79
2019-05-30T15:08:37.007Z,1007.78
2019-05-30T15:09:36.998Z,1007.79
2019-05-30T15:10:36.999Z,1007.81
2019-05-30T15:11:36.979Z,1007.71
2019-05-30T15:12:36.971Z,1007.70
2019-05-30T15:13:37.280Z,1007.77
2019-05-30T15:14:36.928Z,1007.78
2019-05-30T15:15:36.931Z,1007.69
2019-05-30T15:16:36.917Z,1007.77
2019-05-30T15:17:36.900Z,1007.79
2019-05-30T15:18:36.888Z,1007.65
2019-05-30T15:19:36.930Z,1007.77
2019-05-30T15:20:36.869Z,1007.68
2019-05-30T15:21:36.872Z,1007.70
2019-05-30T15:22:36.861Z,1007.78
2019-05-30T15:23:36.839Z,1007.74
2019-05-30T15:24:36.830Z,1007.79
2019-05-30T15:25:36.819Z,1007.72
2019-05-30T15:26:36.812Z,1007.76
2019-05-30T15:27:36.819Z,1007.67
2019-05-30T15:28:36.803Z,1007.73
2019-05-30T15:29:36.802Z,1007.75
2019-05-30T15:30:36.761Z,1007.74
2019-05-30T15:31:36.764Z,1007.74
2019-05-30T15:32:36.763Z,1007.71
2019-05-30T15:33:36.732Z,1007.70
2019-05-30T15:35:36.715Z,1007.66
2019-05-30T15:36:36.704Z,1007.65
2019-05-30T15:37:36.693Z,1007.63
2019-05-30T15:38:36.707Z,1007.63
2019-05-30T15:39:36.666Z,1007.62
2019-05-30T15:40:36.736Z,1007.62
2019-05-30T15:41:36.659Z,1007.63
2019-05-30T15:42:36.635Z,1007.58
2019-05-30T15:43:36.628Z,1007.60
2019-05-30T15:44:36.629Z,1007.65
2019-05-30T15:45:36.607Z,1007.67
2019-05-30T15:46:36.607Z,1007.58
2019-05-30T15:47:36.598Z,1007.63
2019-05-30T15:48:36.580Z,1007.58
2019-05-30T15:49:36.571Z,1007.60
2019-05-30T15:50:36.617Z,1007.56
2019-05-30T15:51:36.539Z,1007.56
2019-05-30T15:52:36.537Z,1007.50
2019-05-30T15:53:36.518Z,1007.50
2019-05-30T15:54:36.535Z,1007.46
2019-05-30T15:55:36.512Z,1007.38
2019-05-30T15:56:36.568Z,1007.43
2019-05-30T15:57:36.499Z,1007.48
2019-05-30T15:58:36.485Z,1007.35
2019-05-30T15:59:36.470Z,1007.38
2019-05-30T16:00:37.133Z,1007.33
2019-05-30T16:01:36.428Z,1007.29
2019-05-30T16:02:36.453Z,1007.29
2019-05-30T16:03:36.433Z,1007.40
2019-05-30T16:04:36.415Z,1007.26
2019-05-30T16:06:36.397Z,1007.43
2019-05-30T16:07:36.374Z,1007.36
2019-05-30T16:08:36.376Z,1007.23
2019-05-30T16:09:46.762Z,1007.36
2019-05-30T16:10:37.357Z,1007.34
2019-05-30T16:11:36.328Z,1007.39
2019-05-30T16:12:36.331Z,1007.28
2019-05-30T16:13:36.307Z,1007.30
2019-05-30T16:14:36.286Z,1007.36
2019-05-30T16:15:36.286Z,1007.30
2019-05-30T16:16:40.263Z,1007.28
2019-05-30T16:17:36.318Z,1007.32
2019-05-30T16:18:36.261Z,1007.27
2019-05-30T16:19:36.245Z,1007.22
2019-05-30T16:20:36.238Z,1007.25
2019-05-30T16:21:36.229Z,1007.22
2019-05-30T16:22:36.215Z,1007.28
2019-05-30T16:23:36.217Z,1007.20
2019-05-30T16:24:36.187Z,1007.19
2019-05-30T16:25:36.193Z,1007.26
2019-05-30T16:26:36.189Z,1007.17
2019-05-30T16:27:36.184Z,1007.15
2019-05-30T16:28:36.194Z,1007.19
2019-05-30T16:29:36.135Z,1007.14
2019-05-30T16:30:36.120Z,1007.14
2019-05-30T16:31:36.109Z,1007.20
2019-05-30T16:32:36.098Z,1007.19
2019-05-30T16:33:36.120Z,1007.20
2019-05-30T16:34:36.112Z,1007.20
2019-05-30T16:35:36.080Z,1007.11
2019-05-30T16:37:36.058Z,1007.09
2019-05-30T16:38:36.050Z,1007.16
2019-05-30T16:39:36.032Z,1007.10
2019-05-30T16:40:36.010Z,1007.01
2019-05-30T16:41:36.045Z,1007.05
2019-05-30T16:42:36.005Z,1007.13
2019-05-30T16:43:36.004Z,1007.03
2019-05-30T16:44:35.995Z,1007.05
2019-05-30T16:45:35.977Z,1007.06
2019-05-30T16:46:35.959Z,1007.08
2019-05-30T16:47:35.963Z,1007.04
2019-05-30T16:48:35.930Z,1006.98
2019-05-30T16:49:35.923Z,1007.02
2019-05-30T16:50:35.905Z,1006.97
2019-05-30T16:51:35.894Z,1006.96
2019-05-30T16:52:35.886Z,1006.92
2019-05-30T16:53:35.877Z,1007.00
2019-05-30T16:54:35.916Z,1006.97
2019-05-30T16:55:35.868Z,1007.01
2019-05-30T16:56:35.847Z,1006.91
2019-05-30T16:57:35.825Z,1006.93
2019-05-30T16:58:35.827Z,1006.92
2019-05-30T16:59:35.837Z,1006.89
2019-05-30T17:00:35.814Z,1006.89
2019-05-30T17:01:35.881Z,1006.87
2019-05-30T17:02:35.800Z,1006.89
2019-05-30T17:03:35.773Z,1006.88
2019-05-30T17:04:35.757Z,1006.83
2019-05-30T17:05:35.746Z,1006.93
2019-05-30T17:06:35.747Z,1006.86
2019-05-30T17:08:36.024Z,1006.83
2019-05-30T17:09:35.741Z,1006.88
2019-05-30T17:10:35.710Z,1006.89
2019-05-30T17:11:35.683Z,1006.82
2019-05-30T17:12:35.690Z,1006.75
2019-05-30T17:13:35.672Z,1006.78
2019-05-30T17:14:35.660Z,1006.78
2019-05-30T17:15:35.651Z,1006.77
2019-05-30T17:16:35.662Z,1006.83
2019-05-30T17:17:35.619Z,1006.86
2019-05-30T17:18:35.620Z,1006.76
2019-05-30T17:19:39.030Z,1006.73
2019-05-30T17:20:35.588Z,1006.72